Time;durP1;ratioP1;P1;durP2;ratioP2;P2;SDS_P1;SDS_P2;PMS_P1;PMS_P2;Temp;Humidity;BMP_temperature;BMP_pressure;BME280_temperature;BME280_humidity;BME280_pressure;Samples;Min_cycle;Max_cycle;Signal;HPM_P1;HPM_P2
2023/03/06 00:00:24;;;;;;;0.80;0.80;;;;;;;-5.15;100.00;97372.00;4990584;28;20144;-79
2023/03/06 00:02:52;;;;;;;0.90;0.90;;;;;;;-5.17;99.98;97364.28;4991216;28;20469;-78
2023/03/06 00:05:19;;;;;;;0.88;0.88;;;;;;;-5.27;99.62;97361.94;4989436;28;20046;-79
2023/03/06 00:07:46;;;;;;;0.90;0.90;;;;;;;-5.26;99.94;97362.78;4989458;28;20567;-78
2023/03/06 00:10:18;;;;;;;0.70;0.70;;;;;;;-5.24;99.85;97369.47;4990311;28;20101;-79
2023/03/06 00:12:45;;;;;;;0.80;0.80;;;;;;;-5.25;99.85;97367.81;4990798;28;20456;-79
2023/03/06 00:15:13;;;;;;;0.70;0.70;;;;;;;-5.29;99.92;97361.31;4990558;28;20133;-78
2023/03/06 00:17:43;;;;;;;0.90;0.90;;;;;;;-5.34;99.76;97361.06;4992201;28;20047;-79
2023/03/06 00:20:12;;;;;;;0.80;0.80;;;;;;;-5.29;100.00;97366.59;4994954;28;20058;-77
2023/03/06 00:22:40;;;;;;;1.00;1.00;;;;;;;-5.25;100.00;97367.00;4994754;28;20102;-79
2023/03/06 00:25:09;;;;;;;0.70;0.70;;;;;;;-5.24;100.00;97369.47;4994736;28;20919;-79
2023/03/06 00:27:36;;;;;;;0.90;0.90;;;;;;;-5.24;100.00;97366.84;4993445;28;20054;-79
2023/03/06 00:30:04;;;;;;;0.70;0.70;;;;;;;-5.26;99.84;97362.78;4993600;28;20046;-79
2023/03/06 00:32:31;;;;;;;1.00;1.00;;;;;;;-5.29;99.80;97363.94;4994515;28;20105;-79
2023/03/06 00:34:58;;;;;;;0.88;0.88;;;;;;;-5.24;99.88;97364.22;4993155;28;20105;-79
2023/03/06 00:37:25;;;;;;;0.80;0.80;;;;;;;-5.22;99.85;97366.63;4994131;28;20077;-79
2023/03/06 00:39:52;;;;;;;0.80;0.80;;;;;;;-5.19;99.79;97365.47;4994530;28;20058;-78
2023/03/06 00:42:23;;;;;;;0.68;0.68;;;;;;;-5.19;99.45;97363.66;4994275;28;20058;-79
2023/03/06 00:44:53;;;;;;;0.73;0.73;;;;;;;-5.19;99.57;97363.66;4974689;28;20055;-78
2023/03/06 00:47:21;;;;;;;0.60;0.60;;;;;;;-5.19;99.57;97360.19;4974852;28;20051;-77
2023/03/06 00:49:48;;;;;;;0.70;0.70;;;;;;;-5.16;99.53;97360.66;4973705;28;20422;-79
2023/03/06 00:52:17;;;;;;;0.70;0.70;;;;;;;-5.16;99.49;97358.03;4974574;28;20577;-78
2023/03/06 00:54:48;;;;;;;0.70;0.70;;;;;;;-5.16;99.18;97357.22;4973389;28;20062;-79
2023/03/06 00:57:15;;;;;;;0.80;0.80;;;;;;;-5.20;99.01;97350.69;4973326;28;20109;-78
2023/03/06 00:59:42;;;;;;;0.70;0.70;;;;;;;-5.26;98.88;97355.69;4974647;28;20498;-80
2023/03/06 01:02:09;;;;;;;0.80;0.80;;;;;;;-5.32;98.92;97351.16;4973625;28;20046;-77
2023/03/06 01:04:36;;;;;;;0.90;0.90;;;;;;;-5.35;98.92;97356.78;4974080;28;20082;-79
2023/03/06 01:07:09;;;;;;;0.90;0.90;;;;;;;-5.40;99.01;97355.72;4974297;28;20053;-77
2023/03/06 01:09:39;;;;;;;0.90;0.90;;;;;;;-5.49;99.07;97360.25;4981778;28;20529;-78
2023/03/06 01:12:06;;;;;;;0.70;0.70;;;;;;;-5.57;99.39;97366.44;4992927;28;20154;-78
2023/03/06 01:14:34;;;;;;;0.90;0.90;;;;;;;-5.57;99.41;97366.44;4992448;28;20434;-79
2023/03/06 01:17:01;;;;;;;0.77;0.77;;;;;;;-5.61;99.20;97361.72;4993835;28;20054;-79
2023/03/06 01:19:28;;;;;;;0.65;0.65;;;;;;;-5.64;99.31;97368.16;4993361;28;20082;-78
2023/03/06 01:21:55;;;;;;;0.82;0.82;;;;;;;-5.68;99.58;97366.88;4993586;28;20046;-79
2023/03/06 01:24:25;;;;;;;0.68;0.68;;;;;;;-5.72;99.36;97363.81;4992307;28;20112;-78
2023/03/06 01:26:55;;;;;;;0.70;0.70;;;;;;;-5.76;99.64;97365.16;4993587;28;20050;-79
2023/03/06 01:29:25;;;;;;;1.00;1.00;;;;;;;-5.79;99.67;97359.47;4992831;28;20050;-79
2023/03/06 01:31:52;;;;;;;0.70;0.70;;;;;;;-5.76;99.83;97369.59;4993607;28;20129;-78
2023/03/06 01:34:19;;;;;;;0.80;0.80;;;;;;;-5.78;99.90;97372.41;4993301;28;20097;-79
2023/03/06 01:36:46;;;;;;;0.80;0.80;;;;;;;-5.79;99.73;97372.59;4992061;28;20610;-79
2023/03/06 01:39:16;;;;;;;0.80;0.80;;;;;;;-5.77;99.90;97370.56;4992943;28;20508;-79
2023/03/06 01:41:42;;;;;;;0.80;0.80;;;;;;;-5.72;99.94;97371.69;4993425;28;20465;-79
2023/03/06 01:44:12;;;;;;;0.70;0.70;;;;;;;-5.68;99.97;97374.75;4993148;28;20074;-79
2023/03/06 01:46:41;;;;;;;0.70;0.70;;;;;;;-5.61;99.64;97369.59;4993402;28;20101;-79
2023/03/06 01:49:18;;;;;;;0.70;0.70;;;;;;;-5.56;99.36;97369.88;4992093;28;20136;-79
2023/03/06 01:51:59;;;;;;;0.88;0.88;;;;;;;-5.54;99.22;97373.13;4993066;28;20054;-78
2023/03/06 01:54:52;;;;;;;0.70;0.70;;;;;;;-5.49;99.19;97376.84;4992934;28;20054;-78
2023/03/06 01:57:30;;;;;;;0.77;0.77;;;;;;;-5.48;98.78;97375.03;4992989;28;20429;-79
2023/03/06 02:00:08;;;;;;;0.63;0.63;;;;;;;-5.45;98.39;97378.09;4991656;28;20153;-79
2023/03/06 02:02:45;;;;;;;0.73;0.73;;;;;;;-5.47;98.21;97385.38;4992672;28;20505;-79
2023/03/06 02:05:12;;;;;;;0.60;0.60;;;;;;;-5.40;98.05;97380.19;4975641;28;20120;-78
2023/03/06 02:07:40;;;;;;;0.75;0.75;;;;;;;-5.33;98.07;97386.34;4991471;28;20050;-78
2023/03/06 02:10:09;;;;;;;0.77;0.77;;;;;;;-5.35;97.73;97380.44;4989266;28;20101;-81
2023/03/06 02:12:38;;;;;;;0.80;0.80;;;;;;;-5.34;97.47;97383.88;4991230;28;20042;-79
2023/03/06 02:15:05;;;;;;;0.80;0.80;;;;;;;-5.32;97.27;97385.34;4991446;28;20054;-79
2023/03/06 02:17:34;;;;;;;0.60;0.60;;;;;;;-5.28;97.35;97394.50;4990653;28;20406;-78
2023/03/06 02:20:07;;;;;;;0.70;0.70;;;;;;;-5.28;97.14;97389.25;4992647;28;20054;-80
2023/03/06 02:23:02;;;;;;;0.73;0.73;;;;;;;-5.28;97.13;97380.53;4992236;28;20505;-79
2023/03/06 02:25:42;;;;;;;0.90;0.90;;;;;;;-5.30;96.96;97385.97;4984246;28;20526;-80
2023/03/06 02:28:16;;;;;;;0.70;0.70;;;;;;;-5.27;97.27;97382.16;4991050;28;20046;-78
2023/03/06 02:30:45;;;;;;;0.70;0.70;;;;;;;-5.26;97.41;97381.19;4990934;28;20490;-79
2023/03/06 02:33:13;;;;;;;0.65;0.65;;;;;;;-5.25;97.16;97378.34;4992218;28;20054;-79
2023/03/06 02:35:46;;;;;;;0.80;0.80;;;;;;;-5.21;97.30;97380.63;4992510;28;20082;-79
2023/03/06 02:38:15;;;;;;;0.70;0.70;;;;;;;-5.18;97.23;97378.44;4991083;28;20054;-79
2023/03/06 02:40:47;;;;;;;0.63;0.63;;;;;;;-5.18;96.92;97373.19;4974857;28;20054;-78
2023/03/06 02:43:16;;;;;;;0.70;0.70;;;;;;;-5.16;96.70;97380.91;4975066;28;20058;-78
2023/03/06 02:45:50;;;;;;;0.68;0.68;;;;;;;-5.11;96.81;97373.25;4975018;28;20049;-78
2023/03/06 02:48:19;;;;;;;0.70;0.70;;;;;;;-5.09;96.61;97379.13;4991956;28;20559;-78
2023/03/06 02:50:48;;;;;;;0.90;0.90;;;;;;;-5.15;96.04;97374.63;4991180;28;20065;-79
2023/03/06 02:53:17;;;;;;;0.70;0.70;;;;;;;-5.18;95.98;97377.63;4991833;28;20050;-78
2023/03/06 02:55:45;;;;;;;0.85;0.85;;;;;;;-5.16;95.82;97375.63;4990444;28;20548;-79
2023/03/06 02:58:19;;;;;;;0.70;0.70;;;;;;;-5.15;95.85;97374.63;4990057;28;20172;-78
2023/03/06 03:00:47;;;;;;;0.60;0.60;;;;;;;-5.23;95.71;97376.34;4990385;28;20046;-79
2023/03/06 03:03:15;;;;;;;0.75;0.75;;;;;;;-5.21;95.60;97376.19;4991754;28;20458;-79
2023/03/06 03:05:42;;;;;;;0.70;0.70;;;;;;;-5.19;95.74;97378.59;4990248;28;20058;-77
2023/03/06 03:08:21;;;;;;;0.80;0.80;;;;;;;-5.18;95.75;97377.63;4990308;28;20527;-78
2023/03/06 03:10:51;;;;;;;0.68;0.68;;;;;;;-5.17;95.66;97380.06;4990052;28;20456;-78
2023/03/06 03:13:19;;;;;;;0.70;0.70;;;;;;;-5.24;95.80;97380.00;4991496;28;20078;-79
2023/03/06 03:16:02;;;;;;;0.85;0.85;;;;;;;-5.23;95.72;97372.91;4990266;28;20050;-78
2023/03/06 03:18:32;;;;;;;0.80;0.80;;;;;;;-5.23;95.94;97371.09;4990252;28;20421;-79
2023/03/06 03:20:59;;;;;;;1.00;1.00;;;;;;;-5.22;96.01;97369.28;4990536;28;20584;-79
2023/03/06 03:23:26;;;;;;;0.80;0.80;;;;;;;-5.20;96.20;97369.09;4990099;28;20050;-79
2023/03/06 03:26:05;;;;;;;0.70;0.70;;;;;;;-5.17;96.22;97369.53;4990023;28;20133;-79
2023/03/06 03:28:33;;;;;;;0.85;0.85;;;;;;;-5.18;96.32;97375.00;4973538;28;20054;-79
2023/03/06 03:31:03;;;;;;;0.70;0.70;;;;;;;-5.15;96.26;97379.88;4991403;28;20054;-79
2023/03/06 03:33:30;;;;;;;0.80;0.80;;;;;;;-5.13;96.05;97372.63;4989465;28;20057;-79
2023/03/06 03:35:58;;;;;;;0.75;0.75;;;;;;;-5.14;96.18;97378.88;4991271;28;20141;-79
2023/03/06 03:38:29;;;;;;;0.70;0.70;;;;;;;-5.19;95.88;97371.56;4989400;28;20064;-79
2023/03/06 03:40:59;;;;;;;0.90;0.90;;;;;;;-5.16;96.19;97378.25;4991310;28;20069;-79
2023/03/06 03:43:26;;;;;;;0.90;0.90;;;;;;;-5.19;96.05;97382.06;4991187;28;20050;-80
2023/03/06 03:45:54;;;;;;;0.80;0.80;;;;;;;-5.14;96.39;97379.72;4989787;28;20053;-79
2023/03/06 03:48:24;;;;;;;0.90;0.90;;;;;;;-5.08;96.46;97386.03;4989440;28;20140;-80
2023/03/06 03:50:52;;;;;;;0.85;0.85;;;;;;;-5.10;96.31;97380.16;4989490;28;20141;-79
2023/03/06 03:53:22;;;;;;;0.80;0.80;;;;;;;-5.09;96.41;97382.59;4989424;28;20050;-80
2023/03/06 03:55:49;;;;;;;0.65;0.65;;;;;;;-5.04;96.24;97385.50;4989280;28;20050;-80
2023/03/06 03:58:19;;;;;;;0.82;0.82;;;;;;;-4.98;96.30;97386.56;4989222;28;20046;-79
2023/03/06 04:00:47;;;;;;;0.90;0.90;;;;;;;-4.98;96.04;97377.88;4989459;28;20129;-79
2023/03/06 04:03:15;;;;;;;0.60;0.60;;;;;;;-4.97;95.97;97384.75;4989245;28;20061;-79
2023/03/06 04:05:44;;;;;;;0.70;0.70;;;;;;;-4.96;95.94;97381.09;4989161;28;20417;-79
2023/03/06 04:08:14;;;;;;;0.88;0.88;;;;;;;-5.01;95.70;97376.41;4989343;28;20047;-80
2023/03/06 04:10:45;;;;;;;0.80;0.80;;;;;;;-5.05;95.83;97378.59;4988972;28;20056;-80
2023/03/06 04:13:14;;;;;;;0.60;0.60;;;;;;;-4.99;95.96;97378.84;4995388;28;20760;-80
2023/03/06 04:15:45;;;;;;;0.80;0.80;;;;;;;-4.94;95.99;97384.38;4999128;28;20563;-80
2023/03/06 04:18:15;;;;;;;0.70;0.70;;;;;;;-4.90;95.97;97385.63;5008560;28;20046;-80
2023/03/06 04:20:46;;;;;;;0.80;0.80;;;;;;;-4.85;95.94;97378.81;4984744;28;20089;-79
2023/03/06 04:23:15;;;;;;;0.90;0.90;;;;;;;-4.85;95.84;97378.81;4970686;28;20097;-81
2023/03/06 04:25:43;;;;;;;0.90;0.90;;;;;;;-4.83;95.82;97386.53;4981908;28;20050;-81
2023/03/06 04:28:14;;;;;;;0.70;0.70;;;;;;;-4.82;95.76;97381.06;4977761;28;20050;-78
2023/03/06 04:30:43;;;;;;;0.90;0.90;;;;;;;-4.84;95.76;97380.44;4991257;28;20052;-84
2023/03/06 04:33:10;;;;;;;0.57;0.57;;;;;;;-4.84;95.86;97372.53;5010856;28;20112;-81
2023/03/06 04:35:38;;;;;;;0.80;0.80;;;;;;;-4.82;95.94;97375.78;5009586;28;20050;-81
2023/03/06 04:38:13;;;;;;;0.88;0.88;;;;;;;-4.79;95.71;97380.69;5008114;28;20126;-81
2023/03/06 04:40:41;;;;;;;0.80;0.80;;;;;;;-4.80;95.89;97383.53;4638768;28;10000258;-82
2023/03/06 04:43:13;;;;;;;0.90;0.90;;;;;;;-4.72;95.99;97385.22;4987357;28;20109;-83
2023/03/06 04:45:40;;;;;;;0.93;0.93;;;;;;;-4.70;96.00;97394.56;4986511;28;20050;-79
2023/03/06 04:48:16;;;;;;;0.77;0.77;;;;;;;-4.65;95.97;97389.53;4987137;28;20063;-79
2023/03/06 04:50:44;;;;;;;1.00;1.00;;;;;;;-4.60;95.68;97389.78;4989986;28;20525;-82
2023/03/06 04:53:11;;;;;;;0.75;0.75;;;;;;;-4.53;95.50;97387.25;5001590;28;20161;-78
2023/03/06 04:55:38;;;;;;;0.90;0.90;;;;;;;-4.53;95.12;97386.41;5006209;28;20052;-78
2023/03/06 04:58:05;;;;;;;0.63;0.63;;;;;;;-4.52;94.80;97391.50;5007258;28;20045;-79
2023/03/06 05:00:32;;;;;;;0.90;0.90;;;;;;;-4.52;94.85;97394.13;5002623;28;20492;-79
2023/03/06 05:03:01;;;;;;;0.80;0.80;;;;;;;-4.50;94.66;97391.31;4974913;28;20041;-79
2023/03/06 05:05:29;;;;;;;0.90;0.90;;;;;;;-4.49;94.43;97391.09;5002266;28;20045;-80
2023/03/06 05:07:56;;;;;;;0.77;0.77;;;;;;;-4.50;94.36;97397.38;5003696;28;20129;-79
2023/03/06 05:10:24;;;;;;;0.80;0.80;;;;;;;-4.44;94.13;97399.25;4996844;28;20133;-81
2023/03/06 05:12:52;;;;;;;0.70;0.70;;;;;;;-4.42;93.90;97397.25;4974432;28;20094;-80
2023/03/06 05:15:19;;;;;;;0.70;0.70;;;;;;;-4.41;93.95;97396.25;4990035;28;20135;-78
2023/03/06 05:17:48;;;;;;;0.70;0.70;;;;;;;-4.34;93.81;97400.78;4986749;28;20095;-80
2023/03/06 05:20:16;;;;;;;0.82;0.82;;;;;;;-4.27;93.47;97401.66;4984890;28;20154;-80
2023/03/06 05:22:43;;;;;;;0.90;0.90;;;;;;;-4.17;93.26;97397.69;4993055;28;20126;-79
2023/03/06 05:25:10;;;;;;;0.88;0.88;;;;;;;-4.12;92.92;97405.03;4992565;28;20046;-80
2023/03/06 05:27:38;;;;;;;1.00;1.00;;;;;;;-4.04;92.26;97407.50;4993006;28;20344;-79
2023/03/06 05:30:06;;;;;;;0.80;0.80;;;;;;;-3.97;91.92;97395.22;4993316;28;20054;-79
2023/03/06 05:32:33;;;;;;;0.95;0.95;;;;;;;-3.92;91.49;97403.34;4993054;28;20079;-79
2023/03/06 05:35:05;;;;;;;0.90;0.90;;;;;;;-3.81;91.18;97401.19;4992807;28;20132;-79
2023/03/06 05:37:38;;;;;;;0.85;0.85;;;;;;;-3.72;90.75;97400.06;4992587;28;20149;-79
2023/03/06 05:40:08;;;;;;;0.95;0.95;;;;;;;-3.75;90.22;97406.53;4991611;28;20054;-80
2023/03/06 05:42:35;;;;;;;0.93;0.93;;;;;;;-3.70;89.78;97403.28;4992609;28;20137;-80
2023/03/06 05:45:03;;;;;;;0.90;0.90;;;;;;;-3.74;89.60;97412.59;4992756;28;20046;-79
2023/03/06 05:47:31;;;;;;;0.90;0.90;;;;;;;-3.71;89.59;97410.38;4992698;28;20046;-79
2023/03/06 05:49:58;;;;;;;0.90;0.90;;;;;;;-3.71;89.64;97413.03;4992592;28;20088;-79
2023/03/06 05:52:25;;;;;;;1.00;1.00;;;;;;;-3.67;89.38;97417.91;4992329;28;20504;-79
2023/03/06 05:54:53;;;;;;;1.00;1.00;;;;;;;-3.72;89.24;97415.88;4992663;28;20042;-80
2023/03/06 05:57:22;;;;;;;0.90;0.90;;;;;;;-3.68;88.81;97411.81;4992662;28;20077;-79
2023/03/06 05:59:49;;;;;;;1.00;1.00;;;;;;;-3.65;88.27;97408.78;4992593;28;20149;-79
2023/03/06 06:02:17;;;;;;;0.80;0.80;;;;;;;-3.55;88.07;97414.53;4990820;28;20054;-80
2023/03/06 06:04:45;;;;;;;0.98;0.98;;;;;;;-3.54;87.92;97410.09;4992605;28;20046;-79
2023/03/06 06:07:14;;;;;;;1.00;1.00;;;;;;;-3.42;88.01;97415.63;4992464;28;20058;-79
2023/03/06 06:09:44;;;;;;;0.90;0.90;;;;;;;-3.37;87.52;97408.75;4992378;28;20204;-79
2023/03/06 06:12:11;;;;;;;1.08;1.08;;;;;;;-3.35;87.12;97411.22;4987830;28;20054;-80
2023/03/06 06:14:39;;;;;;;1.10;1.10;;;;;;;-3.41;86.97;97418.09;4987345;28;20421;-78
2023/03/06 06:17:06;;;;;;;0.88;0.88;;;;;;;-3.35;86.83;97409.38;4988949;28;20062;-80
2023/03/06 06:19:36;;;;;;;0.80;0.80;;;;;;;-3.26;87.01;97420.59;5001332;28;20603;-78
2023/03/06 06:22:03;;;;;;;0.90;0.90;;;;;;;-3.07;86.96;97414.59;4998012;28;20529;-82
2023/03/06 06:24:31;;;;;;;0.80;0.80;;;;;;;-3.00;86.66;97409.34;4979047;28;20082;-78
2023/03/06 06:26:58;;;;;;;0.80;0.80;;;;;;;-2.90;86.58;97416.91;4972763;28;20102;-79
2023/03/06 06:29:30;;;;;;;1.00;1.00;;;;;;;-2.77;86.25;97413.50;4973193;28;20077;-78
2023/03/06 06:31:57;;;;;;;0.90;0.90;;;;;;;-2.66;85.98;97429.59;4987478;28;20054;-79
2023/03/06 06:34:24;;;;;;;0.90;0.90;;;;;;;-2.75;85.32;97422.03;4980811;28;20268;-80
2023/03/06 06:36:55;;;;;;;0.98;0.98;;;;;;;-2.63;85.36;97420.44;4984905;28;20506;-79
2023/03/06 06:39:23;;;;;;;1.10;1.10;;;;;;;-2.54;84.54;97423.72;4971703;28;20191;-81
2023/03/06 06:41:51;;;;;;;0.90;0.90;;;;;;;-2.64;84.13;97422.25;4987077;28;20432;-82
2023/03/06 06:44:38;;;;;;;0.90;0.90;;;;;;;-2.52;84.09;97426.97;4986221;28;20560;-81
2023/03/06 06:47:08;;;;;;;0.80;0.80;;;;;;;-2.50;83.35;97425.75;4990732;28;20145;-83
2023/03/06 06:49:49;;;;;;;1.00;1.00;;;;;;;-2.50;83.43;97438.16;5009269;28;20180;-81
2023/03/06 06:52:17;;;;;;;1.00;1.00;;;;;;;-2.53;83.05;97438.53;5011396;28;20112;-83
2023/03/06 06:54:44;;;;;;;0.93;0.93;;;;;;;-2.64;81.79;97435.47;5011600;28;20152;-80
2023/03/06 06:57:12;;;;;;;0.95;0.95;;;;;;;-2.55;82.24;97432.66;5009983;28;20056;-81
2023/03/06 06:59:42;;;;;;;1.00;1.00;;;;;;;-2.38;81.91;97433.09;5011115;28;20431;-81
2023/03/06 07:02:14;;;;;;;0.90;0.90;;;;;;;-2.45;80.64;97438.38;5009890;28;20054;-82
2023/03/06 07:04:42;;;;;;;1.00;1.00;;;;;;;-2.43;80.35;97423.97;5011366;28;20100;-82
2023/03/06 07:07:26;;;;;;;1.33;1.23;;;;;;;-2.48;79.24;97430.81;5009543;28;20520;-82
2023/03/06 07:09:57;;;;;;;0.98;0.98;;;;;;;-2.51;79.97;97436.50;4979777;28;20394;-81
2023/03/06 07:12:24;;;;;;;1.27;1.20;;;;;;;-2.35;79.96;97428.25;4991160;28;20137;-81
2023/03/06 07:14:51;;;;;;;0.63;0.63;;;;;;;-2.32;79.19;97427.81;4972423;28;20078;-81
2023/03/06 07:17:18;;;;;;;0.70;0.70;;;;;;;-2.05;79.42;97439.25;4980955;28;20069;-81
2023/03/06 07:19:54;;;;;;;1.00;1.00;;;;;;;-1.86;78.28;97431.53;4991621;28;20086;-81
2023/03/06 07:22:21;;;;;;;1.00;1.00;;;;;;;-2.19;76.77;97438.41;4991234;28;20061;-80
2023/03/06 07:25:02;;;;;;;0.90;0.90;;;;;;;-2.57;77.01;97434.69;4991200;28;20058;-82
2023/03/06 07:27:29;;;;;;;0.90;0.90;;;;;;;-2.58;78.17;97438.31;4990880;28;20521;-82
2023/03/06 07:29:56;;;;;;;0.85;0.85;;;;;;;-2.51;78.21;97449.72;4991845;28;20046;-81
2023/03/06 07:32:27;;;;;;;1.05;1.05;;;;;;;-2.79;77.92;97455.13;4991249;28;20049;-82
2023/03/06 07:34:54;;;;;;;0.90;0.90;;;;;;;-2.90;78.26;97441.47;4991084;28;20069;-81
2023/03/06 07:37:43;;;;;;;0.90;0.90;;;;;;;-2.96;77.92;97446.72;4991204;28;20133;-80
2023/03/06 07:40:13;;;;;;;0.90;0.90;;;;;;;-2.90;78.24;97448.59;4973738;28;20054;-81
2023/03/06 07:42:40;;;;;;;0.82;0.82;;;;;;;-2.90;78.61;97451.22;4990896;28;20504;-81
2023/03/06 07:45:11;;;;;;;1.10;1.10;;;;;;;-2.88;78.94;97460.56;4991155;28;20444;-82
2023/03/06 07:47:39;;;;;;;0.90;0.90;;;;;;;-2.92;78.63;97453.25;4999990;28;20050;-82
2023/03/06 07:50:06;;;;;;;0.80;0.80;;;;;;;-3.00;79.18;97456.06;4990654;28;20126;-79
2023/03/06 07:52:33;;;;;;;1.00;1.00;;;;;;;-2.96;79.09;97457.28;4990536;28;20074;-80
2023/03/06 07:55:00;;;;;;;0.82;0.82;;;;;;;-2.92;78.72;97453.25;4990811;28;20046;-81
2023/03/06 07:57:28;;;;;;;0.90;0.90;;;;;;;-2.79;78.58;97455.13;4994337;28;20086;-81
2023/03/06 07:59:56;;;;;;;0.85;0.85;;;;;;;-2.73;77.47;97460.44;4990429;28;20072;-80
2023/03/06 08:02:23;;;;;;;0.70;0.70;;;;;;;-2.67;76.75;97451.72;4990270;28;20102;-80
2023/03/06 08:04:53;;;;;;;0.90;0.90;;;;;;;-2.65;76.54;97454.97;4990859;28;20149;-80
2023/03/06 08:07:21;;;;;;;0.63;0.63;;;;;;;-2.68;76.12;97454.56;4987803;28;20476;-80
2023/03/06 08:09:51;;;;;;;1.08;1.08;;;;;;;-2.76;76.17;97463.47;4990628;28;20047;-81
2023/03/06 08:12:18;;;;;;;0.80;0.80;;;;;;;-2.77;76.88;97459.19;4988602;28;20046;-80
2023/03/06 08:14:47;;;;;;;0.93;0.93;;;;;;;-2.70;77.02;97452.13;4990268;28;20042;-80
2023/03/06 08:17:14;;;;;;;1.00;1.00;;;;;;;-2.70;77.51;97456.59;4989056;28;20061;-81
2023/03/06 08:19:41;;;;;;;0.90;0.90;;;;;;;-2.70;77.50;97446.84;4990223;28;20054;-80
2023/03/06 08:22:10;;;;;;;1.10;1.10;;;;;;;-2.57;77.79;97458.47;4990933;28;20050;-82
2023/03/06 08:24:37;;;;;;;0.55;0.55;;;;;;;-2.55;77.09;97461.72;4990187;28;20059;-81
2023/03/06 08:27:03;;;;;;;0.70;0.70;;;;;;;-2.63;77.15;97458.25;4990502;28;20042;-80
2023/03/06 08:29:30;;;;;;;0.95;0.95;;;;;;;-2.50;77.27;97461.94;4991651;28;20142;-80
2023/03/06 08:31:58;;;;;;;0.70;0.70;;;;;;;-2.45;76.56;97470.09;4990851;28;20217;-81
2023/03/06 08:34:25;;;;;;;0.98;0.98;;;;;;;-2.60;75.88;97466.78;4990188;28;20505;-80
2023/03/06 08:36:52;;;;;;;0.80;0.80;;;;;;;-2.70;75.99;97467.16;4990567;28;20544;-80
2023/03/06 08:39:22;;;;;;;1.10;1.10;;;;;;;-2.53;76.20;97462.31;4991308;28;20417;-81
2023/03/06 08:41:52;;;;;;;1.10;1.10;;;;;;;-2.24;75.48;97467.28;4993875;28;20137;-82
2023/03/06 08:44:19;;;;;;;1.00;1.00;;;;;;;-2.00;74.40;97459.78;4992137;28;20766;-80
2023/03/06 08:46:46;;;;;;;1.00;1.00;;;;;;;-1.92;72.13;97471.97;4993669;28;20133;-82
2023/03/06 08:49:13;;;;;;;1.30;1.20;;;;;;;-1.92;70.93;97467.53;4993376;28;20081;-81
2023/03/06 08:51:41;;;;;;;0.95;0.95;;;;;;;-1.98;70.21;97463.84;4993958;28;20193;-81
2023/03/06 08:54:11;;;;;;;1.17;1.15;;;;;;;-1.87;69.95;97467.75;4992516;28;20386;-80
2023/03/06 08:56:38;;;;;;;1.10;1.10;;;;;;;-1.54;69.77;97477.50;4993597;28;20137;-81
2023/03/06 08:59:05;;;;;;;1.15;1.15;;;;;;;-1.50;69.15;97476.06;4993692;28;20046;-81
2023/03/06 09:01:35;;;;;;;1.20;1.20;;;;;;;-1.34;68.71;97473.00;4993296;28;20168;-81
2023/03/06 09:04:05;;;;;;;1.10;1.10;;;;;;;-1.07;68.14;97467.66;4994041;28;20074;-82
2023/03/06 09:06:35;;;;;;;1.00;1.00;;;;;;;-1.18;67.09;97471.75;4992433;28;20153;-79
2023/03/06 09:09:04;;;;;;;1.00;1.00;;;;;;;-1.24;68.08;97479.69;4992692;28;20043;-80
2023/03/06 09:11:31;;;;;;;1.08;1.08;;;;;;;-1.20;68.59;97473.78;4991281;28;20197;-84
2023/03/06 09:13:58;;;;;;;1.30;1.20;;;;;;;-1.48;67.34;97474.03;4996577;28;20046;-81
2023/03/06 09:16:29;;;;;;;1.00;1.00;;;;;;;-1.61;68.91;97471.41;4995917;28;20057;-81
2023/03/06 09:18:57;;;;;;;1.23;1.20;;;;;;;-1.66;69.06;97487.88;4982175;28;20054;-82
2023/03/06 09:21:26;;;;;;;1.10;1.10;;;;;;;-1.82;69.61;97483.81;4995344;28;20054;-80
2023/03/06 09:23:53;;;;;;;0.90;0.90;;;;;;;-1.91;70.12;97477.09;5001711;28;20104;-80
2023/03/06 09:26:21;;;;;;;0.90;0.90;;;;;;;-2.07;70.08;97480.13;4996498;28;20085;-83
2023/03/06 09:28:58;;;;;;;1.00;1.00;;;;;;;-2.14;70.26;97489.88;5004241;28;20135;-81
2023/03/06 09:31:25;;;;;;;1.20;1.15;;;;;;;-2.07;70.68;97488.88;4990632;28;20104;-82
2023/03/06 09:33:52;;;;;;;1.10;1.10;;;;;;;-1.91;70.63;97490.31;5001111;28;20042;-85
2023/03/06 09:36:21;;;;;;;1.17;1.17;;;;;;;-1.62;70.39;97507.63;5003083;28;20615;-81
2023/03/06 09:38:49;;;;;;;1.00;1.00;;;;;;;-1.65;69.43;97492.16;4996918;28;20042;-81
2023/03/06 09:41:22;;;;;;;1.10;1.10;;;;;;;-1.53;69.85;97492.34;4980680;28;20542;-80
2023/03/06 09:43:53;;;;;;;1.25;1.20;;;;;;;-1.46;69.08;97498.47;4990244;28;20059;-81
2023/03/06 09:46:29;;;;;;;;;;;;;;;-1.65;69.34;97496.63;4989928;28;20046;-82
2023/03/06 09:49:15;;;;;;;1.10;1.10;;;;;;;-1.89;69.73;97501.50;4980557;28;20040;-82
2023/03/06 09:51:54;;;;;;;1.00;1.00;;;;;;;-1.88;69.92;97505.75;4992771;28;20149;-81
2023/03/06 09:54:33;;;;;;;1.10;1.10;;;;;;;-1.84;69.87;97504.34;4967250;28;20058;-82
2023/03/06 09:57:02;;;;;;;1.08;1.08;;;;;;;-1.98;69.36;97503.50;4985363;28;20125;-81
2023/03/06 09:59:32;;;;;;;1.13;1.13;;;;;;;-2.08;69.48;97512.84;4990550;28;20049;-82
2023/03/06 10:02:15;;;;;;;1.08;1.08;;;;;;;-2.22;69.93;97502.25;4994751;28;20050;-83
2023/03/06 10:04:50;;;;;;;1.02;1.02;;;;;;;-2.05;69.98;97515.94;4983206;28;20054;-84
2023/03/06 10:07:21;;;;;;;1.30;1.20;;;;;;;-1.94;69.13;97508.41;4992961;28;20058;-86
2023/03/06 10:10:02;;;;;;;1.02;1.02;;;;;;;-1.79;68.56;97501.91;4977212;28;20052;-82
2023/03/06 10:12:38;;;;;;;0.95;0.95;;;;;;;-1.78;67.47;97510.66;4988901;28;20284;-81
2023/03/06 10:15:05;;;;;;;0.90;0.90;;;;;;;-1.71;68.03;97502.75;4993971;28;20046;-82
2023/03/06 10:17:37;;;;;;;1.30;1.20;;;;;;;-1.76;67.55;97506.00;5000699;28;20054;-84
2023/03/06 10:20:19;;;;;;;1.23;1.20;;;;;;;-1.98;67.78;97511.44;5001098;28;20064;-81
2023/03/06 10:23:01;;;;;;;0.85;0.85;;;;;;;-1.99;68.26;97503.72;4990346;28;20046;-82
2023/03/06 10:25:56;;;;;;;1.10;1.10;;;;;;;-1.94;67.68;97511.06;4994741;28;20055;-82
2023/03/06 10:28:43;;;;;;;1.00;1.00;;;;;;;-1.71;67.36;97516.78;4967747;28;20063;-82
2023/03/06 10:31:23;;;;;;;1.00;1.00;;;;;;;-1.25;66.36;97507.19;4984028;28;20674;-82
2023/03/06 10:33:57;;;;;;;1.38;1.27;;;;;;;-1.04;65.06;97509.59;4979900;28;20162;-80
2023/03/06 10:36:26;;;;;;;1.35;1.25;;;;;;;-0.52;63.95;97512.31;4996862;28;20570;-82
2023/03/06 10:38:55;;;;;;;1.30;1.20;;;;;;;-0.05;62.84;97507.59;4993829;28;20421;-82
2023/03/06 10:41:31;;;;;;;1.50;1.40;;;;;;;0.05;62.16;97512.44;4988106;28;20054;-82
2023/03/06 10:44:04;;;;;;;1.30;1.20;;;;;;;1.29;59.33;97516.06;4995975;28;20441;-83
2023/03/06 10:46:33;;;;;;;1.25;1.20;;;;;;;0.34;60.25;97508.38;5010280;28;20620;-82
2023/03/06 10:49:03;;;;;;;1.13;1.10;;;;;;;-0.14;61.40;97514.19;5001836;28;20467;-83
2023/03/06 10:51:32;;;;;;;1.00;1.00;;;;;;;-0.75;62.55;97510.16;4995942;28;20054;-82
2023/03/06 10:54:14;;;;;;;1.00;1.00;;;;;;;-0.91;63.26;97503.47;4989777;28;20074;-81
2023/03/06 10:56:46;;;;;;;1.00;1.00;;;;;;;-1.28;64.30;97513.72;4987505;28;20449;-80
2023/03/06 10:59:15;;;;;;;1.30;1.20;;;;;;;-1.35;65.24;97521.66;4984624;28;20062;-84
2023/03/06 11:01:52;;;;;;;1.10;1.10;;;;;;;-1.60;65.45;97510.06;4983453;28;20080;-82
2023/03/06 11:04:23;;;;;;;0.93;0.93;;;;;;;-1.68;66.44;97510.25;4992922;28;20050;-81
2023/03/06 11:07:21;;;;;;;0.98;0.98;;;;;;;-1.63;67.39;97526.34;4999542;28;20432;-81
2023/03/06 11:09:58;;;;;;;1.10;1.10;;;;;;;-1.62;67.76;97522.66;5001480;28;20553;-81
2023/03/06 11:12:26;;;;;;;1.10;1.10;;;;;;;-1.63;66.99;97518.41;4991608;28;20140;-82
2023/03/06 11:15:05;;;;;;;1.10;1.10;;;;;;;-1.53;67.29;97527.56;4989344;28;20145;-80
2023/03/06 11:17:35;;;;;;;1.77;1.67;;;;;;;0.12;64.53;97534.44;4978961;28;20105;-82
2023/03/06 11:20:21;;;;;;;1.80;1.70;;;;;;;1.22;59.45;97523.31;4986892;28;20595;-82
2023/03/06 11:22:55;;;;;;;1.27;1.20;;;;;;;0.24;60.45;97527.41;4991363;28;20047;-82
2023/03/06 11:25:31;;;;;;;1.70;1.60;;;;;;;1.84;58.15;97516.03;4989539;28;20066;-83
2023/03/06 11:28:11;;;;;;;1.80;1.70;;;;;;;3.76;52.98;97511.16;4987509;28;20479;-84
2023/03/06 11:30:43;;;;;;;1.60;1.50;;;;;;;3.75;50.48;97520.22;4991398;28;20058;-82
2023/03/06 11:33:27;;;;;;;1.90;1.80;;;;;;;4.88;48.07;97522.19;4972916;28;20206;-81
2023/03/06 11:36:03;;;;;;;1.20;1.15;;;;;;;2.74;50.54;97527.63;4993032;28;20050;-83
2023/03/06 11:38:43;;;;;;;1.00;1.00;;;;;;;1.50;54.48;97522.81;4990525;28;20116;-82
2023/03/06 11:41:21;;;;;;;1.20;1.20;;;;;;;0.76;56.12;97520.09;4990314;28;20085;-82
2023/03/06 11:44:20;;;;;;;1.10;1.10;;;;;;;0.02;57.80;97528.78;4990949;28;20156;-81
2023/03/06 11:47:18;;;;;;;0.93;0.93;;;;;;;0.02;58.34;97524.28;5005182;28;20046;-82
2023/03/06 11:49:50;;;;;;;1.80;1.70;;;;;;;0.93;58.03;97519.50;4967500;28;20509;-83